createdAt,value
2022-08-17T00:01:52.004Z,71.10
2022-08-17T00:04:20.484Z,71.10
2022-08-17T00:06:49.033Z,71.00
2022-08-17T00:09:18.995Z,70.80
2022-08-17T00:12:42.110Z,70.80
2022-08-17T00:14:35.176Z,71.30
2022-08-17T00:17:04.655Z,71.20
2022-08-17T00:19:32.955Z,70.90
2022-08-17T00:22:35.298Z,70.80
2022-08-17T00:24:50.575Z,70.80
2022-08-17T00:27:18.494Z,70.60
2022-08-17T00:29:46.141Z,70.30
2022-08-17T00:33:11.941Z,70.40
2022-08-17T00:35:07.534Z,70.30
2022-08-17T00:37:34.909Z,70.30
2022-08-17T00:40:02.497Z,70.30
2022-08-17T00:42:31.325Z,70.30
2022-08-17T00:44:59.345Z,70.40
2022-08-17T00:47:26.719Z,70.80
2022-08-17T00:49:54.160Z,71.00
2022-08-17T00:52:23.101Z,70.90
2022-08-17T00:54:52.365Z,71.00
2022-08-17T00:57:33.599Z,71.10
2022-08-17T01:00:04.750Z,71.30
2022-08-17T01:02:34.909Z,71.20
2022-08-17T01:05:15.100Z,71.20
2022-08-17T01:07:42.662Z,71.50
2022-08-17T01:11:00.039Z,71.60
2022-08-17T01:13:00.275Z,71.80
2022-08-17T01:15:27.686Z,72.00
2022-08-17T01:17:55.005Z,72.00
2022-08-17T01:20:22.357Z,72.00
2022-08-17T01:22:49.812Z,72.00
2022-08-17T01:25:17.330Z,72.30
2022-08-17T01:27:44.672Z,72.30
2022-08-17T01:30:57.284Z,72.30
2022-08-17T01:32:59.896Z,72.40
2022-08-17T01:35:27.232Z,72.10
2022-08-17T01:37:54.638Z,72.20
2022-08-17T01:40:33.679Z,72.30
2022-08-17T01:43:04.235Z,72.60
2022-08-17T01:45:33.713Z,72.70
2022-08-17T01:48:01.084Z,72.70
2022-08-17T01:50:30.498Z,72.70
2022-08-17T01:53:00.251Z,72.80
2022-08-17T01:55:31.925Z,72.90
2022-08-17T01:57:59.335Z,73.30
2022-08-17T02:01:00.196Z,73.40
2022-08-17T02:03:18.849Z,73.40
2022-08-17T02:05:48.533Z,73.40
2022-08-17T02:08:20.093Z,73.40
2022-08-17T02:10:48.248Z,73.70
2022-08-17T02:13:16.053Z,73.40
2022-08-17T02:15:43.627Z,73.50
2022-08-17T02:18:11.210Z,73.60
2022-08-17T02:20:41.725Z,73.80
2022-08-17T02:23:10.915Z,73.60
2022-08-17T02:25:38.577Z,73.30
2022-08-17T02:28:05.959Z,73.30
2022-08-17T02:30:59.178Z,73.40
2022-08-17T02:33:21.632Z,73.60
2022-08-17T02:35:49.371Z,73.90
2022-08-17T02:38:17.407Z,74.60
2022-08-17T02:40:44.794Z,74.50
2022-08-17T02:43:13.719Z,74.70
2022-08-17T02:45:41.097Z,74.90
2022-08-17T02:48:08.453Z,74.90
2022-08-17T02:50:35.938Z,74.90
2022-08-17T02:53:04.757Z,74.80
2022-08-17T02:55:37.239Z,74.90
2022-08-17T02:58:05.095Z,75.00
2022-08-17T03:00:34.563Z,75.00
2022-08-17T03:03:03.467Z,74.90
2022-08-17T03:05:32.798Z,75.10
2022-08-17T03:08:00.161Z,75.60
2022-08-17T03:10:28.084Z,75.80
2022-08-17T03:12:55.680Z,76.10
2022-08-17T03:15:26.080Z,75.60
2022-08-17T03:17:54.179Z,75.50
2022-08-17T03:20:21.694Z,75.50
2022-08-17T03:22:53.431Z,75.30
2022-08-17T03:25:27.330Z,75.00
2022-08-17T03:27:56.732Z,74.70
2022-08-17T03:30:24.665Z,74.60
2022-08-17T03:32:56.801Z,74.50
2022-08-17T03:35:25.531Z,74.40
2022-08-17T03:38:00.491Z,74.40
2022-08-17T03:40:34.519Z,74.60
2022-08-17T03:43:16.721Z,75.10
2022-08-17T03:46:02.402Z,75.20
2022-08-17T03:48:48.271Z,75.30
2022-08-17T03:51:41.656Z,75.60
2022-08-17T03:54:38.640Z,75.90
2022-08-17T03:57:08.381Z,75.90
2022-08-17T03:59:35.974Z,75.40
2022-08-17T04:02:09.016Z,75.20
2022-08-17T04:04:36.736Z,75.00
2022-08-17T04:07:04.364Z,75.00
2022-08-17T04:09:31.686Z,75.10
2022-08-17T04:12:02.400Z,75.10
2022-08-17T04:14:39.222Z,75.00
2022-08-17T04:17:20.249Z,75.10
2022-08-17T04:19:47.578Z,75.20
2022-08-17T04:22:31.401Z,75.50
2022-08-17T04:25:06.649Z,75.40
2022-08-17T04:27:34.008Z,75.40
2022-08-17T04:30:01.845Z,75.40
2022-08-17T04:33:04.319Z,75.50
2022-08-17T04:35:24.999Z,75.50
2022-08-17T04:37:52.541Z,76.50
2022-08-17T04:40:38.795Z,76.50
2022-08-17T04:43:12.816Z,76.60
2022-08-17T04:45:54.995Z,76.60
2022-08-17T04:48:36.096Z,77.00
2022-08-17T04:51:10.719Z,77.10
2022-08-17T04:53:39.522Z,76.90
2022-08-17T04:56:07.207Z,76.60
2022-08-17T04:58:34.558Z,76.20
2022-08-17T05:01:01.985Z,76.10
2022-08-17T05:03:29.473Z,76.10
2022-08-17T05:05:56.813Z,75.80
2022-08-17T05:08:24.159Z,76.10
2022-08-17T05:10:52.142Z,76.10
2022-08-17T05:13:23.001Z,76.30
2022-08-17T05:15:53.156Z,76.50
2022-08-17T05:18:20.580Z,76.70
2022-08-17T05:20:47.939Z,76.90
2022-08-17T05:23:20.294Z,76.90
2022-08-17T05:25:50.840Z,76.90
2022-08-17T05:28:19.622Z,76.80
2022-08-17T05:30:51.969Z,76.90
2022-08-17T05:33:21.725Z,76.60
2022-08-17T05:35:50.234Z,76.40
2022-08-17T05:38:18.487Z,76.20
2022-08-17T05:40:45.919Z,76.00
2022-08-17T05:43:14.631Z,75.80
2022-08-17T05:46:11.093Z,75.70
2022-08-17T05:48:43.678Z,75.60
2022-08-17T05:51:17.187Z,75.60
2022-08-17T05:53:57.948Z,75.50
2022-08-17T05:56:33.035Z,75.10
2022-08-17T05:59:15.990Z,74.70
2022-08-17T06:02:05.515Z,74.60
2022-08-17T06:04:32.834Z,74.30
2022-08-17T06:07:17.700Z,74.10
2022-08-17T06:10:03.232Z,74.00
2022-08-17T06:12:38.353Z,73.80
2022-08-17T06:15:13.322Z,73.70
2022-08-17T06:17:41.118Z,73.50
2022-08-17T06:20:10.707Z,73.60
2022-08-17T06:22:46.580Z,73.50
2022-08-17T06:25:17.984Z,73.50
2022-08-17T06:27:53.869Z,73.30
2022-08-17T06:30:24.902Z,73.00
2022-08-17T06:32:53.332Z,72.90
2022-08-17T06:36:05.006Z,72.80
2022-08-17T06:38:42.881Z,73.10
2022-08-17T06:41:22.889Z,72.30
2022-08-17T06:44:49.709Z,71.90
2022-08-17T06:47:27.945Z,71.40
2022-08-17T06:50:15.539Z,71.00
2022-08-17T06:52:52.864Z,70.40
2022-08-17T06:55:45.133Z,70.10
2022-08-17T06:58:15.947Z,70.10
2022-08-17T07:00:46.033Z,69.80
2022-08-17T07:03:26.279Z,69.00
2022-08-17T07:06:24.197Z,68.60
2022-08-17T07:09:01.104Z,67.90
2022-08-17T07:11:43.585Z,67.80
2022-08-17T07:14:37.883Z,67.90
2022-08-17T07:17:15.594Z,69.20
2022-08-17T07:19:45.409Z,68.80
2022-08-17T07:22:23.527Z,68.50
2022-08-17T07:24:58.385Z,69.80
2022-08-17T07:27:27.636Z,69.00
2022-08-17T07:30:00.459Z,68.40
2022-08-17T07:32:31.834Z,67.90
2022-08-17T07:35:15.286Z,67.20
2022-08-17T07:37:54.445Z,67.20
2022-08-17T07:40:27.887Z,66.30
2022-08-17T07:43:15.605Z,66.20
2022-08-17T07:46:10.836Z,65.90
2022-08-17T07:48:39.058Z,65.40
2022-08-17T07:51:33.878Z,65.80
2022-08-17T07:54:23.286Z,65.80
2022-08-17T07:57:18.682Z,65.60
2022-08-17T08:00:01.729Z,65.70
2022-08-17T08:02:33.679Z,65.80
2022-08-17T08:05:49.483Z,64.70
2022-08-17T08:08:26.722Z,64.10
2022-08-17T08:10:59.949Z,62.90
2022-08-17T08:13:30.750Z,62.70
2022-08-17T08:16:19.832Z,62.30
2022-08-17T08:18:54.241Z,62.20
2022-08-17T08:21:35.553Z,62.30
2022-08-17T08:24:21.573Z,62.00
2022-08-17T08:27:19.504Z,61.50
2022-08-17T08:30:11.782Z,60.40
2022-08-17T08:32:46.533Z,60.00
2022-08-17T08:35:31.447Z,60.50
2022-08-17T08:38:10.907Z,59.80
2022-08-17T08:40:53.086Z,59.70
2022-08-17T08:43:36.322Z,59.40
2022-08-17T08:46:22.012Z,59.30
2022-08-17T08:49:12.078Z,58.30
2022-08-17T08:51:46.472Z,58.00
2022-08-17T08:54:17.021Z,58.00
2022-08-17T08:57:22.283Z,58.10
2022-08-17T09:00:12.798Z,57.40
2022-08-17T09:03:04.824Z,57.60
2022-08-17T09:05:52.790Z,57.40
2022-08-17T09:08:40.520Z,57.60
2022-08-17T09:11:22.711Z,57.50
2022-08-17T09:14:21.040Z,57.60
2022-08-17T09:16:57.536Z,57.30
2022-08-17T09:19:30.525Z,57.20
2022-08-17T09:22:03.493Z,57.60
2022-08-17T09:24:39.985Z,56.80
2022-08-17T09:27:15.304Z,56.00
2022-08-17T09:29:50.549Z,55.80
2022-08-17T09:32:31.534Z,55.90
2022-08-17T09:35:04.325Z,55.50
2022-08-17T09:37:49.893Z,54.50
2022-08-17T09:40:25.973Z,54.50
2022-08-17T09:42:57.021Z,54.60
2022-08-17T09:45:42.553Z,54.50
2022-08-17T09:48:43.795Z,54.20
2022-08-17T09:51:15.824Z,54.20
2022-08-17T09:53:44.706Z,54.50
2022-08-17T09:56:27.090Z,53.20
2022-08-17T09:59:17.429Z,52.90
2022-08-17T10:02:15.584Z,52.30
2022-08-17T10:05:14.141Z,52.50
2022-08-17T10:07:55.966Z,52.20
2022-08-17T10:10:29.761Z,51.70
2022-08-17T10:13:02.349Z,52.20
2022-08-17T10:15:51.757Z,52.50
2022-08-17T10:18:40.800Z,51.20
2022-08-17T10:21:32.927Z,51.10
2022-08-17T10:24:22.201Z,51.20
2022-08-17T10:26:56.567Z,50.90
2022-08-17T10:29:48.974Z,50.70
2022-08-17T10:32:26.684Z,50.50
2022-08-17T10:35:08.475Z,50.30
2022-08-17T10:38:12.073Z,50.00
2022-08-17T10:41:03.444Z,49.30
2022-08-17T10:43:41.779Z,49.30
2022-08-17T10:46:30.324Z,49.40
2022-08-17T10:49:16.763Z,49.00
2022-08-17T10:51:53.464Z,49.10
2022-08-17T10:54:32.992Z,48.70
2022-08-17T10:57:00.350Z,48.60
2022-08-17T10:59:36.872Z,48.70
2022-08-17T11:02:19.395Z,49.10
2022-08-17T11:05:06.250Z,48.50
2022-08-17T11:08:07.131Z,48.20
2022-08-17T11:10:52.518Z,48.00
2022-08-17T11:13:41.756Z,47.60
2022-08-17T11:16:24.529Z,47.60
2022-08-17T11:19:08.540Z,47.70
2022-08-17T11:22:13.232Z,47.50
2022-08-17T11:24:44.687Z,46.80
2022-08-17T11:27:30.075Z,46.70
2022-08-17T11:30:02.531Z,47.00
2022-08-17T11:32:39.123Z,46.00
2022-08-17T11:35:20.789Z,46.40
2022-08-17T11:38:16.286Z,45.80
2022-08-17T11:41:08.628Z,45.80
2022-08-17T11:43:55.459Z,45.80
2022-08-17T11:47:09.198Z,45.50
2022-08-17T11:49:57.862Z,45.70
2022-08-17T11:52:46.076Z,45.40
2022-08-17T11:55:36.303Z,44.60
2022-08-17T11:58:29.434Z,44.60
2022-08-17T12:01:23.571Z,44.70
2022-08-17T12:03:55.773Z,44.70
2022-08-17T12:06:51.559Z,44.30
2022-08-17T12:09:24.870Z,44.40
2022-08-17T12:12:12.862Z,44.30
2022-08-17T12:17:41.442Z,43.70
2022-08-17T12:20:40.840Z,43.90
2022-08-17T12:23:32.034Z,43.60
2022-08-17T12:26:05.831Z,43.60
2022-08-17T12:28:35.608Z,43.80
2022-08-17T12:31:08.186Z,42.80
2022-08-17T12:33:36.576Z,42.90
2022-08-17T12:36:05.788Z,42.80
2022-08-17T12:38:34.600Z,42.60
2022-08-17T12:41:21.695Z,42.70
2022-08-17T12:44:02.183Z,42.70
2022-08-17T12:46:33.643Z,42.20
2022-08-17T12:49:32.138Z,42.40
2022-08-17T12:52:20.466Z,42.10
2022-08-17T12:55:07.541Z,41.50
2022-08-17T12:57:42.171Z,41.60
2022-08-17T13:00:20.583Z,41.70
2022-08-17T13:02:55.006Z,39.80
2022-08-17T13:05:27.663Z,40.40
2022-08-17T13:07:55.887Z,39.70
2022-08-17T13:10:35.613Z,39.40
2022-08-17T13:13:05.824Z,40.60
2022-08-17T13:15:36.202Z,40.40
2022-08-17T13:18:09.210Z,39.70
2022-08-17T13:20:36.574Z,39.40
2022-08-17T13:23:11.394Z,39.70
2022-08-17T13:25:39.564Z,39.60
2022-08-17T13:28:06.939Z,38.70
2022-08-17T13:30:34.272Z,39.30
2022-08-17T13:33:04.747Z,39.20
2022-08-17T13:35:45.909Z,39.40
2022-08-17T13:38:41.083Z,38.90
2022-08-17T13:41:08.899Z,38.60
2022-08-17T13:43:48.463Z,38.70
2022-08-17T13:46:20.709Z,39.10
2022-08-17T13:49:03.824Z,39.10
2022-08-17T13:51:36.127Z,38.70
2022-08-17T13:54:04.991Z,38.90
2022-08-17T13:56:46.656Z,38.90
2022-08-17T13:59:52.480Z,38.70
2022-08-17T14:02:14.360Z,40.20
2022-08-17T14:04:42.644Z,40.30
2022-08-17T14:07:13.007Z,40.10
2022-08-17T14:09:51.301Z,39.50
2022-08-17T14:12:21.748Z,39.30
2022-08-17T14:14:49.604Z,39.60
2022-08-17T14:17:17.039Z,38.80
2022-08-17T14:19:44.504Z,38.60
2022-08-17T14:22:18.349Z,38.30
2022-08-17T14:24:45.895Z,38.20
2022-08-17T14:27:13.221Z,37.40
2022-08-17T14:29:41.273Z,36.70
2022-08-17T14:32:24.788Z,36.70
2022-08-17T14:34:53.190Z,36.80
2022-08-17T14:37:21.095Z,37.00
2022-08-17T14:39:48.502Z,36.50
2022-08-17T14:42:17.560Z,35.80
2022-08-17T14:44:44.928Z,33.40
2022-08-17T14:47:14.891Z,34.90
2022-08-17T14:49:42.354Z,36.70
2022-08-17T14:52:10.670Z,37.00
2022-08-17T14:54:42.503Z,37.90
2022-08-17T14:57:33.029Z,39.50
2022-08-17T15:00:00.576Z,37.10
2022-08-17T15:02:29.934Z,36.70
2022-08-17T15:05:05.273Z,34.20
2022-08-17T15:07:32.630Z,33.20
2022-08-17T15:10:01.355Z,35.40
2022-08-17T15:12:32.827Z,34.30
2022-08-17T15:15:05.017Z,34.10
2022-08-17T15:17:54.959Z,34.20
2022-08-17T15:20:24.913Z,34.60
2022-08-17T15:22:55.620Z,35.80
2022-08-17T15:25:24.460Z,35.10
2022-08-17T15:27:52.298Z,35.20
2022-08-17T15:30:20.168Z,35.90
2022-08-17T15:32:51.116Z,36.50
2022-08-17T15:35:28.222Z,36.00
2022-08-17T15:37:57.942Z,35.80
2022-08-17T15:40:25.440Z,36.10
2022-08-17T15:42:52.991Z,35.70
2022-08-17T15:45:22.898Z,36.10
2022-08-17T15:47:50.633Z,35.90
2022-08-17T15:50:18.215Z,35.80
2022-08-17T15:52:47.481Z,35.90
2022-08-17T15:55:15.066Z,36.40
2022-08-17T15:57:42.447Z,36.60
2022-08-17T16:00:10.134Z,36.90
2022-08-17T16:03:15.178Z,36.60
2022-08-17T16:05:30.148Z,36.70
2022-08-17T16:07:59.575Z,37.10
2022-08-17T16:10:35.212Z,37.50
2022-08-17T16:13:03.663Z,37.70
2022-08-17T16:15:31.834Z,39.30
2022-08-17T16:17:59.598Z,40.80
2022-08-17T16:20:27.141Z,41.20
2022-08-17T16:22:55.138Z,41.60
2022-08-17T16:25:52.211Z,42.30
2022-08-17T16:28:13.471Z,42.20
2022-08-17T16:30:41.264Z,42.10
2022-08-17T16:33:09.289Z,42.50
2022-08-17T16:35:36.773Z,42.60
2022-08-17T16:38:04.343Z,42.70
2022-08-17T16:40:35.975Z,42.60
2022-08-17T16:43:04.368Z,42.70
2022-08-17T16:45:36.427Z,42.80
2022-08-17T16:48:04.460Z,42.90
2022-08-17T16:50:32.551Z,42.80
2022-08-17T16:53:18.774Z,43.00
2022-08-17T16:55:47.282Z,44.10
2022-08-17T16:58:14.875Z,43.10
2022-08-17T17:00:42.892Z,43.10
2022-08-17T17:03:17.764Z,43.40
2022-08-17T17:06:07.958Z,43.30
2022-08-17T17:08:37.497Z,43.40
2022-08-17T17:11:14.808Z,43.70
2022-08-17T17:13:56.505Z,43.70
2022-08-17T17:16:31.086Z,43.90
2022-08-17T17:19:11.948Z,44.10
2022-08-17T17:21:56.648Z,44.20
2022-08-17T17:24:40.514Z,44.70
2022-08-17T17:27:13.812Z,45.10
2022-08-17T17:29:50.061Z,45.40
2022-08-17T17:32:22.293Z,45.10
2022-08-17T17:34:53.318Z,45.40
2022-08-17T17:37:25.635Z,45.20
2022-08-17T17:39:56.172Z,45.70
2022-08-17T17:42:25.069Z,45.70
2022-08-17T17:45:09.501Z,45.60
2022-08-17T17:47:36.976Z,45.90
2022-08-17T17:50:05.436Z,45.90
2022-08-17T17:52:58.959Z,46.60
2022-08-17T17:55:51.407Z,46.40
2022-08-17T17:58:24.537Z,46.60
2022-08-17T18:01:14.913Z,46.80
2022-08-17T18:04:20.385Z,47.40
2022-08-17T18:07:16.977Z,47.70
2022-08-17T18:10:01.046Z,47.80
2022-08-17T18:12:40.823Z,48.00
2022-08-17T18:15:10.819Z,48.30
2022-08-17T18:17:38.201Z,48.50
2022-08-17T18:20:06.985Z,48.80
2022-08-17T18:22:34.475Z,49.10
2022-08-17T18:25:01.789Z,49.30
2022-08-17T18:27:38.037Z,49.60
2022-08-17T18:30:15.006Z,49.70
2022-08-17T18:32:43.650Z,50.10
2022-08-17T18:35:11.016Z,50.10
2022-08-17T18:37:40.154Z,50.20
2022-08-17T18:40:29.146Z,50.90
2022-08-17T18:43:04.281Z,50.60
2022-08-17T18:45:45.423Z,50.60
2022-08-17T18:48:28.565Z,50.80
2022-08-17T18:50:58.920Z,50.70
2022-08-17T18:53:30.332Z,50.80
2022-08-17T18:56:30.924Z,50.90
2022-08-17T18:59:02.468Z,51.10
2022-08-17T19:01:58.874Z,51.10
2022-08-17T19:04:28.386Z,51.20
2022-08-17T19:07:21.814Z,51.90
2022-08-17T19:09:53.082Z,51.50
2022-08-17T19:12:46.177Z,51.70
2022-08-17T19:15:15.312Z,51.90
2022-08-17T19:17:46.052Z,52.20
2022-08-17T19:20:15.821Z,52.20
2022-08-17T19:23:12.383Z,52.40
2022-08-17T19:25:45.321Z,52.50
2022-08-17T19:28:29.713Z,52.60
2022-08-17T19:30:59.378Z,53.40
2022-08-17T19:33:27.176Z,52.90
2022-08-17T19:36:08.213Z,52.90
2022-08-17T19:38:47.498Z,52.80
2022-08-17T19:41:42.521Z,52.80
2022-08-17T19:44:49.149Z,53.00
2022-08-17T19:47:51.257Z,53.00
2022-08-17T19:50:22.111Z,52.90
2022-08-17T19:53:05.842Z,52.90
2022-08-17T19:56:01.067Z,52.90
2022-08-17T19:58:37.460Z,52.80
2022-08-17T20:01:05.211Z,52.70
2022-08-17T20:03:53.156Z,52.70
2022-08-17T20:06:20.922Z,52.70
2022-08-17T20:08:59.122Z,52.80
2022-08-17T20:11:33.531Z,52.90
2022-08-17T20:14:24.190Z,52.90
2022-08-17T20:16:51.594Z,53.00
2022-08-17T20:19:31.733Z,52.90
2022-08-17T20:22:12.441Z,53.00
2022-08-17T20:24:44.171Z,53.10
2022-08-17T20:27:31.952Z,53.20
2022-08-17T20:30:07.266Z,53.30
2022-08-17T20:32:35.853Z,53.30
2022-08-17T20:35:17.688Z,53.20
2022-08-17T20:37:57.691Z,53.10
2022-08-17T20:40:27.573Z,53.10
2022-08-17T20:42:55.459Z,53.20
2022-08-17T20:45:24.681Z,53.40
2022-08-17T20:48:22.225Z,53.30
2022-08-17T20:50:52.707Z,53.10
2022-08-17T20:53:48.176Z,53.00
2022-08-17T20:56:43.445Z,53.40
2022-08-17T20:59:25.915Z,53.40
2022-08-17T21:02:18.924Z,53.40
2022-08-17T21:04:47.368Z,53.60
2022-08-17T21:07:29.339Z,53.50
2022-08-17T21:10:21.703Z,53.60
2022-08-17T21:13:04.583Z,53.70
2022-08-17T21:15:52.396Z,53.80
2022-08-17T21:18:33.049Z,53.80
2022-08-17T21:21:14.091Z,53.80
2022-08-17T21:24:02.874Z,53.90
2022-08-17T21:26:50.337Z,54.00
2022-08-17T21:29:31.889Z,53.90
2022-08-17T21:32:05.429Z,53.80
2022-08-17T21:34:44.025Z,53.80
2022-08-17T21:37:21.956Z,53.90
2022-08-17T21:39:53.055Z,53.80
2022-08-17T21:42:25.830Z,53.70
2022-08-17T21:44:55.696Z,53.10
2022-08-17T21:47:25.203Z,52.90
2022-08-17T21:49:53.836Z,52.70
2022-08-17T21:52:24.403Z,52.40
2022-08-17T21:54:56.912Z,52.30
2022-08-17T21:57:28.887Z,52.10
2022-08-17T22:00:01.354Z,52.20
2022-08-17T22:02:33.214Z,52.40
2022-08-17T22:05:05.873Z,52.40
2022-08-17T22:07:51.605Z,52.60
2022-08-17T22:10:34.194Z,52.80
2022-08-17T22:13:03.556Z,53.00
2022-08-17T22:15:30.980Z,53.20
2022-08-17T22:18:03.156Z,53.60
2022-08-17T22:20:30.516Z,56.10
2022-08-17T22:23:19.354Z,61.00
2022-08-17T22:26:03.407Z,61.30
2022-08-17T22:28:41.308Z,65.20
2022-08-17T22:31:10.357Z,69.50
2022-08-17T22:33:47.452Z,72.80
2022-08-17T22:36:29.021Z,70.50
2022-08-17T22:38:58.843Z,75.60
2022-08-17T22:41:32.056Z,79.80
2022-08-17T22:44:06.736Z,80.30
2022-08-17T22:46:37.447Z,81.80
2022-08-17T22:49:04.838Z,80.50
2022-08-17T22:51:32.237Z,82.50
2022-08-17T22:54:20.132Z,85.80
2022-08-17T22:57:18.685Z,88.40
2022-08-17T22:59:49.428Z,90.40
2022-08-17T23:02:27.701Z,91.50
2022-08-17T23:05:16.897Z,92.30
2022-08-17T23:07:46.066Z,93.50
2022-08-17T23:10:13.685Z,94.70
2022-08-17T23:12:41.031Z,95.80
2022-08-17T23:15:15.338Z,96.10
2022-08-17T23:17:42.736Z,96.80
2022-08-17T23:20:13.633Z,98.00
2022-08-17T23:22:51.072Z,98.60
2022-08-17T23:25:28.694Z,99.00
2022-08-17T23:27:57.335Z,99.60
2022-08-17T23:30:25.648Z,99.90
2022-08-17T23:32:54.284Z,99.90
2022-08-17T23:35:39.266Z,99.90
2022-08-17T23:38:12.163Z,99.90
2022-08-17T23:40:40.591Z,99.90
2022-08-17T23:43:17.650Z,99.90
2022-08-17T23:45:54.232Z,99.90
2022-08-17T23:48:27.819Z,99.90
2022-08-17T23:51:12.759Z,99.90
2022-08-17T23:53:47.207Z,99.90
2022-08-17T23:56:14.510Z,99.90
2022-08-17T23:58:42.608Z,99.90
